Portada
METAR-TAF:

METAR-TAF

Aeropuertos :

Masset, Columbia Británica, Canadá

Aeropuerto de Masset

latitud: 54-01-38N, longitud: 132-07-30W, altitud: 6 m

Observación

El informe se hizo hace 8 horas y 29 minutos, a las 01:00 UTC
Viento 14 kt del oeste
Temperatura 9°C
Humedad 34%
Presión 1027 hPa
Visibilidad: 24.1 km
Nubes dispersas a una altura de 4500 ft
Cielo nuboso a una altura de 22000 ft

METAR: CZMT 260100Z 28014KT 15SM SCT045 BKN220 09/M06 A3033 RMK SC3CI2 WND ESTD LAST OBS / NEXT 161400 UTC VIA CYZT SLP273

Hora: 02:29 (09:29 UTC)

Pronóstico

El informe se hizo hace 14 horas y 51 minutos, a las 18:38 UTC
Pronóstico válido del 25 a las 19 UTC al 26 a las 01 UTC
Viento 12 kt del norte-noroeste
Visibilidad: 10 km
Escasas nubes a una altura de 600 ft

TAF: CZMT 251838Z 2519/2601 33012KT P6SM FEW006 RMK NXT FCST WILL BE ISSUED AT 261515Z

Observaciones y pronósticos meteorológicos de más de 4000 aeropuertos (mensajes METAR y TAF).

Los puntos amarillos y rojos representan las estaciones disponibles.

Ponga el ratón en el punto deseado para ver el nombre de la estación.

Haga clic para ver las observaciones y los pronósticos meteorológicos.

Para cambiar el mapa : haga clic en los botones verdes con una cruz de color negro para hacer un zoom, en el botón verde con un guión para alejar o en las flechas verdes para mapas adyacentes.


METAR-TAF: